Time;durP1;ratioP1;P1;durP2;ratioP2;P2;SDS_P1;SDS_P2;PMS_P1;PMS_P2;Temp;Humidity;BMP_temperature;BMP_pressure;BME280_temperature;BME280_humidity;BME280_pressure;Samples;Min_cycle;Max_cycle;Signal;HPM_P1;HPM_P2
2023/06/15 00:02:10;;;;;;;6.80;3.50;;;;;;;;;;5025059;28;20100;-71
2023/06/15 00:04:35;;;;;;;4.40;3.25;;;;;;;;;;5024235;28;20040;-71
2023/06/15 00:07:00;;;;;;;6.47;3.50;;;;;;;;;;5027315;28;20029;-71
2023/06/15 00:09:26;;;;;;;5.47;3.45;;;;;;;;;;5026802;28;20045;-71
2023/06/15 00:11:51;;;;;;;4.35;3.17;;;;;;;;;;5026534;28;20092;-71
2023/06/15 00:14:16;;;;;;;5.50;3.60;;;;;;;;;;5027022;28;20507;-71
2023/06/15 00:16:42;;;;;;;4.13;3.45;;;;;;;;;;5026975;28;20061;-71
2023/06/15 00:19:08;;;;;;;4.97;3.28;;;;;;;;;;5026745;28;20060;-72
2023/06/15 00:21:40;;;;;;;6.07;3.60;;;;;;;;;;5027097;28;20049;-71
2023/06/15 00:24:09;;;;;;;6.50;3.40;;;;;;;;;;5026403;28;20038;-71
2023/06/15 00:26:35;;;;;;;6.40;3.92;;;;;;;;;;5013484;28;20041;-71
2023/06/15 00:29:00;;;;;;;4.18;3.40;;;;;;;;;;5027056;28;20034;-71
2023/06/15 00:31:26;;;;;;;7.00;3.58;;;;;;;;;;5026936;28;20033;-71
2023/06/15 00:33:52;;;;;;;7.63;3.60;;;;;;;;;;5023667;28;20726;-71
2023/06/15 00:36:17;;;;;;;6.68;3.40;;;;;;;;;;5026806;28;20047;-71
2023/06/15 00:38:43;;;;;;;7.90;4.10;;;;;;;;;;5027687;28;20041;-71
2023/06/15 00:41:08;;;;;;;5.13;4.03;;;;;;;;;;5031716;28;20030;-71
2023/06/15 00:43:35;;;;;;;4.63;3.55;;;;;;;;;;5038797;28;20060;-71
2023/06/15 00:46:02;;;;;;;6.80;3.92;;;;;;;;;;5026875;28;20053;-71
2023/06/15 00:48:28;;;;;;;4.35;3.70;;;;;;;;;;5026244;28;20037;-71
2023/06/15 00:50:53;;;;;;;4.65;3.90;;;;;;;;;;5025671;28;20068;-71
2023/06/15 00:53:19;;;;;;;5.18;3.83;;;;;;;;;;5026329;28;20068;-71
2023/06/15 00:55:45;;;;;;;4.45;3.65;;;;;;;;;;5026511;28;20041;-71
2023/06/15 00:58:10;;;;;;;5.80;3.90;;;;;;;;;;5025149;28;20542;-71
2023/06/15 01:00:37;;;;;;;5.05;3.80;;;;;;;;;;5026344;28;20037;-71
2023/06/15 01:03:06;;;;;;;4.72;4.00;;;;;;;;;;5025297;28;20054;-71
2023/06/15 01:05:34;;;;;;;5.82;3.92;;;;;;;;;;5023717;28;20515;-71
2023/06/15 01:08:05;;;;;;;4.35;3.95;;;;;;;;;;5017787;28;20503;-71
2023/06/15 01:10:32;;;;;;;4.82;3.63;;;;;;;;;;5026167;28;20604;-71
2023/06/15 01:13:00;;;;;;;9.88;3.90;;;;;;;;;;5025429;28;20055;-71
2023/06/15 01:15:26;;;;;;;5.20;3.92;;;;;;;;;;5025433;28;20474;-71
2023/06/15 01:17:56;;;;;;;7.57;4.10;;;;;;;;;;5025402;28;20523;-71
2023/06/15 01:20:27;;;;;;;7.78;3.92;;;;;;;;;;5023535;28;20029;-71
2023/06/15 01:23:21;;;;;;;9.50;4.20;;;;;;;;;;5025248;28;20116;-71
2023/06/15 01:25:48;;;;;;;11.95;4.43;;;;;;;;;;5014423;28;20136;-71
2023/06/15 01:28:17;;;;;;;8.95;4.22;;;;;;;;;;5025818;28;20037;-71
2023/06/15 01:30:42;;;;;;;7.13;4.20;;;;;;;;;;5024873;28;20029;-71
2023/06/15 01:33:08;;;;;;;5.50;4.22;;;;;;;;;;5025213;28;20106;-71
2023/06/15 01:35:34;;;;;;;5.63;4.20;;;;;;;;;;5025188;28;20049;-71
2023/06/15 01:38:00;;;;;;;7.32;3.95;;;;;;;;;;5024890;28;20042;-71
2023/06/15 01:40:26;;;;;;;6.93;4.03;;;;;;;;;;5024956;28;20040;-71
2023/06/15 01:42:52;;;;;;;6.03;4.22;;;;;;;;;;5025360;28;20033;-71
2023/06/15 01:45:20;;;;;;;7.43;4.32;;;;;;;;;;5024916;28;20049;-71
2023/06/15 01:47:47;;;;;;;10.15;4.30;;;;;;;;;;5025395;28;20034;-71
2023/06/15 01:50:13;;;;;;;11.27;4.40;;;;;;;;;;5024667;28;20606;-71
2023/06/15 01:52:39;;;;;;;6.10;4.28;;;;;;;;;;5023935;28;20044;-71
2023/06/15 01:55:05;;;;;;;7.63;4.55;;;;;;;;;;5025579;28;20131;-71
2023/06/15 01:57:35;;;;;;;5.00;4.38;;;;;;;;;;5025255;28;20041;-71
2023/06/15 02:00:03;;;;;;;6.72;4.18;;;;;;;;;;5024473;28;20037;-71
2023/06/15 02:02:28;;;;;;;8.18;4.57;;;;;;;;;;5025297;28;20079;-71
2023/06/15 02:04:53;;;;;;;6.00;4.40;;;;;;;;;;5025563;28;20746;-71
2023/06/15 02:07:19;;;;;;;7.40;4.43;;;;;;;;;;5028103;28;20033;-71
2023/06/15 02:09:44;;;;;;;7.28;4.20;;;;;;;;;;5035019;28;20022;-71
2023/06/15 02:12:10;;;;;;;7.43;4.20;;;;;;;;;;5032223;28;20033;-71
2023/06/15 02:14:35;;;;;;;7.28;4.30;;;;;;;;;;5025772;28;20748;-71
2023/06/15 02:17:00;;;;;;;6.47;4.70;;;;;;;;;;5024745;28;20125;-71
2023/06/15 02:19:28;;;;;;;7.95;4.88;;;;;;;;;;5025560;28;20037;-70
2023/06/15 02:21:53;;;;;;;7.40;4.65;;;;;;;;;;5024420;28;20051;-71
2023/06/15 02:24:18;;;;;;;10.05;4.93;;;;;;;;;;5024417;28;20045;-71
2023/06/15 02:26:44;;;;;;;6.75;4.82;;;;;;;;;;5024567;28;20106;-71
2023/06/15 02:29:10;;;;;;;8.30;4.95;;;;;;;;;;5024650;28;20049;-71
2023/06/15 02:31:36;;;;;;;6.32;5.03;;;;;;;;;;5011478;28;20026;-71
2023/06/15 02:34:01;;;;;;;6.20;4.95;;;;;;;;;;5025164;28;20056;-71
2023/06/15 02:36:28;;;;;;;7.97;5.00;;;;;;;;;;5024394;28;20499;-71
2023/06/15 02:38:54;;;;;;;8.48;4.80;;;;;;;;;;5025152;28;20045;-71
2023/06/15 02:41:19;;;;;;;5.50;4.57;;;;;;;;;;5024007;28;20041;-71
2023/06/15 02:43:45;;;;;;;9.57;5.63;;;;;;;;;;5023845;28;20033;-71
2023/06/15 02:46:10;;;;;;;8.93;5.75;;;;;;;;;;5025254;28;20059;-71
2023/06/15 02:48:35;;;;;;;9.63;5.40;;;;;;;;;;5023989;28;20042;-70
2023/06/15 02:51:01;;;;;;;6.80;5.20;;;;;;;;;;5024368;28;20029;-71
2023/06/15 02:53:26;;;;;;;8.27;4.95;;;;;;;;;;5024477;28;20033;-71
2023/06/15 02:55:54;;;;;;;6.93;5.10;;;;;;;;;;5023853;28;20033;-71
2023/06/15 02:58:20;;;;;;;6.20;5.07;;;;;;;;;;5024390;28;20033;-71
2023/06/15 03:00:50;;;;;;;8.85;5.55;;;;;;;;;;5024651;28;20059;-71
2023/06/15 03:03:22;;;;;;;8.25;5.47;;;;;;;;;;5011133;28;20052;-71
2023/06/15 03:05:51;;;;;;;7.57;5.00;;;;;;;;;;5024783;28;20042;-71
2023/06/15 03:08:18;;;;;;;7.68;4.93;;;;;;;;;;5024175;28;20042;-71
2023/06/15 03:10:44;;;;;;;7.63;5.32;;;;;;;;;;5024061;28;20256;-71
2023/06/15 03:13:10;;;;;;;9.98;5.50;;;;;;;;;;5024550;28;20025;-71
2023/06/15 03:15:36;;;;;;;8.77;6.00;;;;;;;;;;5023772;28;20033;-71
2023/06/15 03:18:03;;;;;;;7.28;5.70;;;;;;;;;;5024059;28;20029;-71
2023/06/15 03:20:32;;;;;;;8.55;6.28;;;;;;;;;;5024375;28;20471;-71
2023/06/15 03:22:59;;;;;;;10.63;5.93;;;;;;;;;;5024588;28;20042;-71
2023/06/15 03:25:25;;;;;;;7.47;5.95;;;;;;;;;;5027321;28;20128;-71
2023/06/15 03:27:53;;;;;;;8.15;5.50;;;;;;;;;;5029170;28;20109;-71
2023/06/15 03:30:19;;;;;;;7.68;5.60;;;;;;;;;;5027421;28;20120;-71
2023/06/15 03:32:46;;;;;;;9.70;5.88;;;;;;;;;;5028611;28;20555;-71
2023/06/15 03:35:12;;;;;;;8.38;5.50;;;;;;;;;;5032044;28;20229;-71
2023/06/15 03:37:38;;;;;;;12.48;5.65;;;;;;;;;;5025871;28;20539;-71
2023/06/15 03:40:05;;;;;;;7.53;5.30;;;;;;;;;;5031279;28;20249;-71
2023/06/15 03:42:31;;;;;;;9.55;5.70;;;;;;;;;;5027536;28;20033;-71
2023/06/15 03:44:56;;;;;;;6.13;5.20;;;;;;;;;;5026575;28;20042;-71
2023/06/15 03:47:21;;;;;;;10.95;5.32;;;;;;;;;;5026987;28;20068;-71
2023/06/15 03:49:47;;;;;;;8.07;5.65;;;;;;;;;;5027192;28;20059;-71
2023/06/15 03:52:12;;;;;;;8.07;6.03;;;;;;;;;;5027116;28;20475;-71
2023/06/15 03:54:37;;;;;;;8.63;5.65;;;;;;;;;;5027384;28;20095;-71
2023/06/15 03:57:03;;;;;;;5.88;5.28;;;;;;;;;;5026990;28;20037;-71
2023/06/15 03:59:28;;;;;;;8.88;5.30;;;;;;;;;;5027591;28;20036;-71
2023/06/15 04:01:53;;;;;;;7.57;5.90;;;;;;;;;;5026636;28;20856;-71
2023/06/15 04:04:19;;;;;;;10.32;5.90;;;;;;;;;;5026595;28;20045;-70
2023/06/15 04:06:46;;;;;;;9.70;5.72;;;;;;;;;;5028024;28;20045;-71
2023/06/15 04:09:13;;;;;;;9.45;5.78;;;;;;;;;;5026138;28;20089;-71
2023/06/15 04:11:39;;;;;;;7.80;5.22;;;;;;;;;;5027046;28;20121;-71
2023/06/15 04:14:04;;;;;;;8.82;5.60;;;;;;;;;;5026721;28;20037;-71
2023/06/15 04:16:30;;;;;;;8.02;5.95;;;;;;;;;;5026274;28;20033;-70
2023/06/15 04:18:55;;;;;;;9.55;5.80;;;;;;;;;;5026970;28;20028;-71
2023/06/15 04:21:21;;;;;;;8.23;6.05;;;;;;;;;;5025328;28;20144;-71
2023/06/15 04:23:46;;;;;;;10.73;6.00;;;;;;;;;;5026849;28;20072;-71
2023/06/15 04:26:13;;;;;;;8.48;5.97;;;;;;;;;;5026583;28;20140;-71
2023/06/15 04:28:38;;;;;;;9.52;6.15;;;;;;;;;;5026875;28;20045;-71
2023/06/15 04:31:10;;;;;;;8.40;6.30;;;;;;;;;;5021644;28;20096;-72
2023/06/15 04:33:41;;;;;;;8.95;5.88;;;;;;;;;;5018880;28;20044;-71
2023/06/15 04:36:07;;;;;;;16.95;6.00;;;;;;;;;;5025908;28;20037;-71
2023/06/15 04:38:32;;;;;;;9.43;6.40;;;;;;;;;;5026914;28;20044;-71
2023/06/15 04:40:58;;;;;;;8.20;5.68;;;;;;;;;;5026372;28;20025;-71
2023/06/15 04:43:23;;;;;;;9.95;6.05;;;;;;;;;;5026361;28;20039;-71
2023/06/15 04:45:48;;;;;;;7.75;5.57;;;;;;;;;;5027307;28;20605;-71
2023/06/15 04:48:14;;;;;;;11.63;6.00;;;;;;;;;;5026045;28;20128;-71
2023/06/15 04:50:39;;;;;;;9.90;5.85;;;;;;;;;;5025953;28;20042;-71
2023/06/15 04:53:04;;;;;;;9.02;5.95;;;;;;;;;;5024655;28;20045;-71
2023/06/15 04:55:30;;;;;;;9.93;5.82;;;;;;;;;;5026369;28;20018;-71
2023/06/15 04:57:55;;;;;;;7.95;5.72;;;;;;;;;;5026686;28;20683;-71
2023/06/15 05:00:20;;;;;;;9.55;6.22;;;;;;;;;;5027096;28;20093;-71
2023/06/15 05:02:46;;;;;;;13.75;6.05;;;;;;;;;;5016569;28;20041;-71
2023/06/15 05:05:12;;;;;;;10.07;6.68;;;;;;;;;;5038427;28;20053;-71
2023/06/15 05:07:37;;;;;;;8.75;5.90;;;;;;;;;;5030725;28;20032;-70
2023/06/15 05:10:03;;;;;;;7.38;5.78;;;;;;;;;;5027235;28;20026;-71
2023/06/15 05:12:28;;;;;;;8.32;5.78;;;;;;;;;;5013725;28;20465;-71
2023/06/15 05:14:54;;;;;;;13.32;7.40;;;;;;;;;;5025566;28;20041;-71
2023/06/15 05:17:20;;;;;;;8.82;5.93;;;;;;;;;;5026006;28;20560;-71
2023/06/15 05:19:45;;;;;;;8.55;6.20;;;;;;;;;;5026041;28;20040;-71
2023/06/15 05:22:11;;;;;;;9.38;6.10;;;;;;;;;;5026123;28;20026;-71
2023/06/15 05:24:36;;;;;;;10.15;5.95;;;;;;;;;;5024983;28;20038;-71
2023/06/15 05:27:02;;;;;;;7.97;6.03;;;;;;;;;;5025879;28;20041;-71
2023/06/15 05:29:28;;;;;;;9.48;5.80;;;;;;;;;;5024830;28;20037;-71
2023/06/15 05:31:55;;;;;;;9.25;5.85;;;;;;;;;;5025710;28;20033;-70
2023/06/15 05:34:21;;;;;;;8.32;6.00;;;;;;;;;;5025365;28;20108;-70
2023/06/15 05:36:46;;;;;;;9.45;5.88;;;;;;;;;;5025279;28;20139;-71
2023/06/15 05:39:11;;;;;;;10.35;5.95;;;;;;;;;;5024578;28;20041;-70
2023/06/15 05:41:37;;;;;;;6.90;5.55;;;;;;;;;;5019335;28;20060;-71
2023/06/15 05:44:02;;;;;;;9.20;5.53;;;;;;;;;;5024178;28;20033;-71
2023/06/15 05:46:28;;;;;;;10.43;6.00;;;;;;;;;;5020481;28;20041;-70
2023/06/15 05:48:53;;;;;;;8.30;6.25;;;;;;;;;;5020059;28;20400;-70
2023/06/15 05:51:18;;;;;;;8.00;5.75;;;;;;;;;;5023469;28;20042;-71
2023/06/15 05:53:44;;;;;;;7.38;5.75;;;;;;;;;;5024819;28;20061;-71
2023/06/15 05:56:09;;;;;;;7.43;6.18;;;;;;;;;;5024054;28;20043;-71
2023/06/15 05:58:35;;;;;;;9.30;6.00;;;;;;;;;;5022085;28;20029;-71
2023/06/15 06:01:01;;;;;;;9.23;6.55;;;;;;;;;;5021256;28;20025;-71
2023/06/15 06:03:26;;;;;;;7.25;5.97;;;;;;;;;;5009989;28;20088;-71
2023/06/15 06:05:51;;;;;;;9.10;5.80;;;;;;;;;;5021449;28;20151;-70
2023/06/15 06:08:18;;;;;;;7.88;5.78;;;;;;;;;;5012804;28;20045;-71
2023/06/15 06:10:44;;;;;;;8.50;6.30;;;;;;;;;;5014023;28;20045;-72
2023/06/15 06:13:09;;;;;;;7.95;5.57;;;;;;;;;;5013349;28;20017;-71
2023/06/15 06:15:35;;;;;;;7.93;5.55;;;;;;;;;;5013943;28;20052;-72
2023/06/15 06:18:02;;;;;;;8.60;5.70;;;;;;;;;;5024150;28;20120;-72
2023/06/15 06:20:27;;;;;;;6.53;5.72;;;;;;;;;;5024015;28;20067;-71
2023/06/15 06:22:53;;;;;;;7.25;5.40;;;;;;;;;;5024342;28;20107;-72
2023/06/15 06:25:18;;;;;;;7.50;5.90;;;;;;;;;;5021296;28;20040;-71
2023/06/15 06:27:44;;;;;;;13.25;5.82;;;;;;;;;;5014664;28;20026;-71
2023/06/15 06:30:10;;;;;;;9.70;5.68;;;;;;;;;;5014028;28;20033;-71
2023/06/15 06:32:35;;;;;;;10.48;5.70;;;;;;;;;;5030079;28;20041;-72
2023/06/15 06:35:00;;;;;;;10.68;5.28;;;;;;;;;;5006441;28;20424;-72
2023/06/15 06:37:26;;;;;;;7.13;5.65;;;;;;;;;;5020857;28;20025;-72
2023/06/15 06:39:51;;;;;;;7.80;5.22;;;;;;;;;;5023496;28;20029;-72
2023/06/15 06:42:17;;;;;;;7.40;5.07;;;;;;;;;;5009121;28;20724;-71
2023/06/15 06:44:43;;;;;;;14.65;5.47;;;;;;;;;;5013536;28;20061;-72
2023/06/15 06:47:08;;;;;;;10.98;4.88;;;;;;;;;;5011674;28;20049;-71
2023/06/15 06:49:34;;;;;;;11.35;4.53;;;;;;;;;;5017674;28;20036;-72
2023/06/15 06:51:59;;;;;;;11.35;4.60;;;;;;;;;;5014355;28;20013;-72
2023/06/15 06:54:24;;;;;;;7.38;4.75;;;;;;;;;;5022967;28;20045;-72
2023/06/15 06:56:50;;;;;;;5.30;4.53;;;;;;;;;;5017593;28;20036;-72
2023/06/15 06:59:15;;;;;;;7.28;4.80;;;;;;;;;;5019820;28;20061;-72
2023/06/15 07:01:42;;;;;;;5.93;4.50;;;;;;;;;;5023509;28;20116;-72
2023/06/15 07:04:07;;;;;;;6.93;4.78;;;;;;;;;;5018946;28;20049;-72
2023/06/15 07:06:33;;;;;;;5.50;4.25;;;;;;;;;;5018876;28;20122;-72
2023/06/15 07:08:58;;;;;;;8.68;4.38;;;;;;;;;;5022441;28;20103;-72
2023/06/15 07:11:24;;;;;;;6.47;3.90;;;;;;;;;;5014217;28;20104;-72
2023/06/15 07:13:49;;;;;;;5.88;4.55;;;;;;;;;;5020359;28;20038;-72
2023/06/15 07:16:15;;;;;;;5.47;3.80;;;;;;;;;;5026875;28;20029;-72
2023/06/15 07:18:40;;;;;;;9.35;4.50;;;;;;;;;;5027454;28;20037;-72
2023/06/15 07:21:05;;;;;;;4.43;4.03;;;;;;;;;;5026601;28;20037;-72
2023/06/15 07:23:31;;;;;;;6.43;4.05;;;;;;;;;;5027251;28;20557;-72
2023/06/15 07:25:56;;;;;;;8.68;4.15;;;;;;;;;;5024752;28;20036;-72
2023/06/15 07:28:21;;;;;;;5.20;4.60;;;;;;;;;;5015447;28;20033;-72
2023/06/15 07:30:50;;;;;;;6.95;4.65;;;;;;;;;;5026112;28;20021;-72
2023/06/15 07:33:16;;;;;;;6.13;4.53;;;;;;;;;;5026302;28;20115;-72
2023/06/15 07:35:42;;;;;;;6.20;4.55;;;;;;;;;;5027547;28;20033;-72
2023/06/15 07:38:08;;;;;;;7.10;4.60;;;;;;;;;;5025934;28;20130;-72
2023/06/15 07:40:33;;;;;;;5.28;4.32;;;;;;;;;;5024580;28;20554;-72
2023/06/15 07:42:58;;;;;;;4.90;4.13;;;;;;;;;;5021074;28;20022;-72
2023/06/15 07:45:24;;;;;;;4.15;3.60;;;;;;;;;;5018915;28;20045;-72
2023/06/15 07:47:49;;;;;;;5.68;3.40;;;;;;;;;;5011898;28;20034;-72
2023/06/15 07:50:15;;;;;;;4.80;3.63;;;;;;;;;;5019840;28;20041;-72
2023/06/15 07:52:40;;;;;;;5.15;3.58;;;;;;;;;;5025506;28;20040;-72
2023/06/15 07:55:06;;;;;;;4.40;3.90;;;;;;;;;;5029458;28;20013;-73
2023/06/15 07:57:32;;;;;;;5.57;3.80;;;;;;;;;;5034169;28;20053;-72
2023/06/15 07:59:58;;;;;;;5.20;3.90;;;;;;;;;;5039506;28;20416;-72
2023/06/15 08:02:24;;;;;;;5.85;3.50;;;;;;;;;;5027890;28;20029;-72
2023/06/15 08:04:49;;;;;;;3.72;3.28;;;;;;;;;;5017902;28;20037;-72
2023/06/15 08:07:15;;;;;;;3.95;3.10;;;;;;;;;;5025040;28;20134;-72
2023/06/15 08:09:41;;;;;;;7.07;3.65;;;;;;;;;;5013390;28;20533;-72
2023/06/15 08:12:07;;;;;;;4.90;3.28;;;;;;;;;;5022185;28;20033;-71
2023/06/15 08:14:32;;;;;;;6.75;3.63;;;;;;;;;;5013876;28;20041;-72
2023/06/15 08:16:57;;;;;;;4.72;3.40;;;;;;;;;;5009694;28;20048;-72
2023/06/15 08:19:22;;;;;;;4.35;3.90;;;;;;;;;;5016173;28;20598;-72
2023/06/15 08:21:48;;;;;;;4.57;3.40;;;;;;;;;;5013948;28;20025;-72
2023/06/15 08:24:13;;;;;;;4.97;3.42;;;;;;;;;;5020204;28;20041;-72
2023/06/15 08:26:38;;;;;;;4.65;3.60;;;;;;;;;;5024193;28;20035;-72
2023/06/15 08:29:04;;;;;;;7.20;3.47;;;;;;;;;;5025451;28;20030;-73
2023/06/15 08:31:30;;;;;;;7.15;3.70;;;;;;;;;;5017503;28;20033;-72
2023/06/15 08:33:56;;;;;;;6.00;3.75;;;;;;;;;;5021808;28;20944;-73
2023/06/15 08:36:22;;;;;;;4.95;3.22;;;;;;;;;;5026156;28;20553;-72
2023/06/15 08:38:48;;;;;;;5.88;3.17;;;;;;;;;;5025308;28;20040;-72
2023/06/15 08:41:13;;;;;;;3.83;2.92;;;;;;;;;;5023634;28;20046;-72
2023/06/15 08:43:43;;;;;;;4.30;3.00;;;;;;;;;;5021580;28;20266;-72
2023/06/15 08:46:09;;;;;;;6.10;3.42;;;;;;;;;;5018528;28;20850;-72
2023/06/15 08:48:35;;;;;;;5.45;3.17;;;;;;;;;;5012725;28;20046;-72
2023/06/15 08:51:01;;;;;;;4.22;3.42;;;;;;;;;;5016519;28;20045;-72
2023/06/15 08:53:27;;;;;;;5.35;3.08;;;;;;;;;;5023944;28;20492;-72
2023/06/15 08:55:52;;;;;;;5.20;3.35;;;;;;;;;;5025218;28;20030;-72
2023/06/15 08:58:18;;;;;;;9.63;3.30;;;;;;;;;;5020716;28;20025;-72
2023/06/15 09:00:43;;;;;;;6.97;3.40;;;;;;;;;;5020414;28;20030;-72
2023/06/15 09:03:09;;;;;;;4.00;3.17;;;;;;;;;;5024882;28;20423;-72
2023/06/15 09:05:35;;;;;;;6.28;3.55;;;;;;;;;;5022945;28;20041;-72
2023/06/15 09:08:01;;;;;;;4.93;3.33;;;;;;;;;;5025216;28;20040;-72
2023/06/15 09:10:27;;;;;;;16.80;3.55;;;;;;;;;;5025434;28;20510;-72
2023/06/15 09:12:56;;;;;;;5.25;3.38;;;;;;;;;;5025651;28;20021;-72
2023/06/15 09:15:27;;;;;;;4.10;3.10;;;;;;;;;;5025611;28;20124;-72
2023/06/15 09:17:58;;;;;;;3.75;2.88;;;;;;;;;;5026049;28;20148;-72
2023/06/15 09:20:25;;;;;;;4.53;3.10;;;;;;;;;;5021733;28;20501;-72
2023/06/15 09:22:51;;;;;;;5.50;3.70;;;;;;;;;;5025855;28;20044;-72
2023/06/15 09:25:20;;;;;;;4.40;3.58;;;;;;;;;;5036283;28;20105;-72
2023/06/15 09:28:01;;;;;;;4.05;3.10;;;;;;;;;;5034070;28;20045;-72
2023/06/15 09:30:36;;;;;;;4.45;3.22;;;;;;;;;;5026409;28;20033;-72
2023/06/15 09:33:14;;;;;;;7.47;3.65;;;;;;;;;;5025945;28;20065;-72
2023/06/15 09:35:57;;;;;;;4.45;3.40;;;;;;;;;;5018073;28;20033;-72
2023/06/15 09:38:23;;;;;;;4.10;3.53;;;;;;;;;;5022934;28;20774;-71
2023/06/15 09:40:49;;;;;;;4.68;3.28;;;;;;;;;;5013023;28;20021;-72
2023/06/15 09:43:16;;;;;;;4.47;3.22;;;;;;;;;;5022341;28;20037;-72
2023/06/15 09:45:54;;;;;;;3.75;3.25;;;;;;;;;;5024534;28;20053;-72
2023/06/15 09:48:21;;;;;;;3.65;3.15;;;;;;;;;;5024684;28;20114;-72
2023/06/15 09:50:51;;;;;;;4.93;3.33;;;;;;;;;;5022658;28;20576;-72
2023/06/15 09:53:17;;;;;;;3.67;3.10;;;;;;;;;;5025556;28;20720;-72
2023/06/15 09:55:45;;;;;;;4.70;3.65;;;;;;;;;;5014119;28;20617;-72
2023/06/15 09:58:11;;;;;;;5.22;3.30;;;;;;;;;;5024008;28;20124;-72
2023/06/15 10:00:36;;;;;;;5.15;3.60;;;;;;;;;;5025083;28;20979;-72
2023/06/15 10:03:03;;;;;;;4.60;3.40;;;;;;;;;;5022552;28;20038;-72
2023/06/15 10:05:33;;;;;;;6.53;3.40;;;;;;;;;;5023782;28;20025;-72
2023/06/15 10:08:04;;;;;;;7.07;3.35;;;;;;;;;;5025132;28;20119;-72
2023/06/15 10:10:30;;;;;;;6.97;3.28;;;;;;;;;;5021595;28;20044;-72
2023/06/15 10:13:00;;;;;;;4.63;3.00;;;;;;;;;;5023808;28;20186;-71
2023/06/15 10:15:28;;;;;;;3.97;3.38;;;;;;;;;;5031712;28;20076;-72
2023/06/15 10:17:56;;;;;;;3.72;3.22;;;;;;;;;;5023012;28;20045;-72
2023/06/15 10:20:23;;;;;;;4.78;3.25;;;;;;;;;;5022570;28;20154;-72
2023/06/15 10:22:54;;;;;;;4.13;3.70;;;;;;;;;;5025095;28;20064;-72
2023/06/15 10:25:21;;;;;;;3.97;3.47;;;;;;;;;;5023479;28;20050;-72
2023/06/15 10:27:47;;;;;;;4.88;3.25;;;;;;;;;;5023686;28;20045;-72
2023/06/15 10:30:25;;;;;;;4.28;3.40;;;;;;;;;;5023494;28;20095;-72
2023/06/15 10:33:09;;;;;;;3.83;3.40;;;;;;;;;;5015160;28;20045;-72
2023/06/15 10:35:37;;;;;;;;;;;;;;;;;;5020007;28;20454;-71
2023/06/15 10:38:02;;;;;;;3.10;2.80;;;;;;;;;;5025063;28;19905;-71
2023/06/15 10:40:31;;;;;;;5.88;3.45;;;;;;;;;;5021863;28;20100;-72
2023/06/15 10:42:57;;;;;;;6.38;3.60;;;;;;;;;;5024265;28;20045;-72
2023/06/15 10:45:30;;;;;;;4.47;3.30;;;;;;;;;;5020297;28;20476;-72
2023/06/15 10:48:00;;;;;;;3.33;2.97;;;;;;;;;;5019916;28;20085;-71
2023/06/15 10:50:27;;;;;;;4.32;3.15;;;;;;;;;;5028640;28;20038;-72
2023/06/15 10:52:52;;;;;;;3.63;3.20;;;;;;;;;;5026892;28;20061;-71
2023/06/15 10:55:22;;;;;;;6.40;3.10;;;;;;;;;;5024410;28;20073;-71
2023/06/15 10:57:48;;;;;;;4.65;3.35;;;;;;;;;;5022259;28;20116;-72
2023/06/15 11:00:24;;;;;;;5.90;3.35;;;;;;;;;;5011347;28;20129;-72
2023/06/15 11:02:54;;;;;;;3.75;3.03;;;;;;;;;;5015525;28;20122;-72
2023/06/15 11:05:21;;;;;;;4.07;3.35;;;;;;;;;;5011091;28;20034;-71
2023/06/15 11:07:50;;;;;;;4.75;3.63;;;;;;;;;;5021680;28;20049;-72
2023/06/15 11:10:27;;;;;;;3.75;3.03;;;;;;;;;;5024764;28;20041;-72
2023/06/15 11:13:02;;;;;;;8.27;3.20;;;;;;;;;;5023893;28;20037;-72
2023/06/15 11:15:35;;;;;;;5.28;3.50;;;;;;;;;;5023334;28;20045;-72
2023/06/15 11:18:03;;;;;;;5.70;3.38;;;;;;;;;;5024648;28;20038;-72
2023/06/15 11:20:44;;;;;;;7.85;3.00;;;;;;;;;;5021477;28;20447;-72
2023/06/15 11:23:18;;;;;;;3.92;3.20;;;;;;;;;;5021790;28;20060;-72
2023/06/15 11:25:44;;;;;;;3.65;3.22;;;;;;;;;;5023054;28;20088;-72
2023/06/15 11:28:11;;;;;;;5.88;3.40;;;;;;;;;;5024145;28;20035;-72
2023/06/15 11:30:40;;;;;;;5.97;3.40;;;;;;;;;;5023505;28;20033;-72
2023/06/15 11:33:11;;;;;;;3.20;2.90;;;;;;;;;;5024830;28;20523;-72
2023/06/15 11:35:36;;;;;;;3.92;3.10;;;;;;;;;;5024636;28;20589;-72
2023/06/15 11:38:02;;;;;;;3.63;3.25;;;;;;;;;;5025224;28;20057;-72
2023/06/15 11:40:27;;;;;;;3.40;3.10;;;;;;;;;;5022498;28;20048;-71
2023/06/15 11:42:58;;;;;;;4.18;3.30;;;;;;;;;;5024617;28;20438;-72
2023/06/15 11:45:25;;;;;;;5.68;3.45;;;;;;;;;;5027937;28;20042;-72
2023/06/15 11:47:50;;;;;;;5.70;3.33;;;;;;;;;;5026683;28;20026;-73
2023/06/15 11:50:17;;;;;;;3.13;2.83;;;;;;;;;;5027128;28;20041;-73
2023/06/15 11:52:46;;;;;;;4.30;3.30;;;;;;;;;;5027778;28;20041;-73
2023/06/15 11:55:13;;;;;;;3.92;3.28;;;;;;;;;;5030235;28;20053;-73
2023/06/15 11:57:41;;;;;;;3.92;3.42;;;;;;;;;;5011183;28;20064;-72
2023/06/15 12:00:10;;;;;;;4.65;3.72;;;;;;;;;;5016118;28;20526;-72
2023/06/15 12:02:35;;;;;;;5.40;3.85;;;;;;;;;;5014319;28;20080;-72
2023/06/15 12:05:02;;;;;;;4.40;3.75;;;;;;;;;;5024073;28;20041;-72
2023/06/15 12:07:30;;;;;;;5.05;3.67;;;;;;;;;;5026122;28;20746;-72
2023/06/15 12:09:56;;;;;;;4.10;3.70;;;;;;;;;;5023381;28;20041;-72
2023/06/15 12:12:32;;;;;;;4.32;3.90;;;;;;;;;;5021555;28;20049;-72
2023/06/15 12:15:00;;;;;;;4.82;3.80;;;;;;;;;;5026125;28;20522;-72
2023/06/15 12:17:26;;;;;;;5.43;3.63;;;;;;;;;;5030883;28;20119;-72
2023/06/15 12:20:07;;;;;;;5.15;3.30;;;;;;;;;;5037808;28;20025;-72
2023/06/15 12:22:40;;;;;;;4.45;3.50;;;;;;;;;;5033941;28;20053;-72
2023/06/15 12:25:06;;;;;;;;;;;;;;;;;;5027125;28;20442;-72
2023/06/15 12:27:31;;;;;;;4.57;3.53;;;;;;;;;;5027052;28;19924;-72
2023/06/15 12:30:17;;;;;;;4.32;3.30;;;;;;;;;;5026851;28;20144;-72
2023/06/15 12:32:47;;;;;;;6.03;3.67;;;;;;;;;;5019648;28;20549;-72
2023/06/15 12:35:26;;;;;;;6.70;4.13;;;;;;;;;;5024230;28;20120;-72
2023/06/15 12:37:56;;;;;;;4.95;3.35;;;;;;;;;;5024656;28;20128;-72
2023/06/15 12:40:22;;;;;;;4.32;3.33;;;;;;;;;;5017601;28;20075;-72
2023/06/15 12:43:16;;;;;;;5.80;3.72;;;;;;;;;;5015380;28;20153;-72
2023/06/15 12:45:42;;;;;;;4.30;3.70;;;;;;;;;;5016038;28;20510;-73
2023/06/15 12:48:07;;;;;;;5.25;3.50;;;;;;;;;;5007578;28;20133;-72
2023/06/15 12:50:33;;;;;;;4.28;3.80;;;;;;;;;;5016377;28;20025;-72
2023/06/15 12:52:59;;;;;;;4.90;3.80;;;;;;;;;;5014515;28;20085;-72
2023/06/15 12:55:25;;;;;;;5.55;3.90;;;;;;;;;;5031537;28;20038;-72
2023/06/15 12:57:51;;;;;;;5.45;3.58;;;;;;;;;;5023222;28;20036;-73
2023/06/15 13:00:18;;;;;;;5.30;3.78;;;;;;;;;;5022103;28;20095;-73
2023/06/15 13:02:44;;;;;;;4.78;3.60;;;;;;;;;;5023775;28;20040;-72
2023/06/15 13:05:10;;;;;;;5.38;3.58;;;;;;;;;;5024142;28;20034;-72
2023/06/15 13:07:38;;;;;;;4.15;3.65;;;;;;;;;;5022887;28;20041;-73
2023/06/15 13:10:05;;;;;;;5.53;3.90;;;;;;;;;;5023810;28;20474;-73
2023/06/15 13:12:30;;;;;;;4.65;3.60;;;;;;;;;;5012657;28;20044;-73
2023/06/15 13:14:56;;;;;;;5.50;4.07;;;;;;;;;;5025131;28;20045;-73
2023/06/15 13:17:22;;;;;;;5.03;3.63;;;;;;;;;;5022934;28;20038;-72
2023/06/15 13:19:47;;;;;;;4.70;4.10;;;;;;;;;;5023134;28;20026;-72
2023/06/15 13:22:13;;;;;;;4.43;3.35;;;;;;;;;;5022924;28;20038;-72
2023/06/15 13:24:38;;;;;;;4.82;3.60;;;;;;;;;;5022694;28;20041;-72
2023/06/15 13:27:08;;;;;;;5.97;3.85;;;;;;;;;;5022740;28;20400;-72
2023/06/15 13:29:38;;;;;;;6.95;3.53;;;;;;;;;;5023156;28;20052;-72
2023/06/15 13:32:05;;;;;;;3.85;3.20;;;;;;;;;;5023637;28;20056;-72
2023/06/15 13:34:31;;;;;;;4.43;3.10;;;;;;;;;;5023456;28;20038;-72
2023/06/15 13:36:56;;;;;;;3.95;3.45;;;;;;;;;;5014505;28;20068;-72
2023/06/15 13:39:21;;;;;;;5.28;3.42;;;;;;;;;;5023086;28;20037;-73
2023/06/15 13:41:47;;;;;;;4.45;3.15;;;;;;;;;;5024187;28;20033;-72
2023/06/15 13:44:12;;;;;;;6.38;3.58;;;;;;;;;;5026481;28;20033;-73
2023/06/15 13:46:38;;;;;;;6.72;3.60;;;;;;;;;;5030621;28;20328;-73
2023/06/15 13:49:05;;;;;;;3.67;3.08;;;;;;;;;;5036808;28;20033;-73
2023/06/15 13:51:30;;;;;;;6.30;3.42;;;;;;;;;;5025917;28;20538;-73
2023/06/15 13:53:57;;;;;;;4.10;3.42;;;;;;;;;;5018020;28;20049;-72
2023/06/15 13:56:24;;;;;;;5.47;3.33;;;;;;;;;;5026221;28;20533;-72
2023/06/15 13:58:53;;;;;;;3.90;3.10;;;;;;;;;;5023936;28;20037;-73
2023/06/15 14:01:23;;;;;;;3.47;3.17;;;;;;;;;;5023222;28;20037;-73
2023/06/15 14:03:48;;;;;;;4.88;3.20;;;;;;;;;;5018269;28;20049;-73
2023/06/15 14:06:15;;;;;;;5.30;3.30;;;;;;;;;;5021862;28;20052;-72
2023/06/15 14:08:40;;;;;;;3.75;3.33;;;;;;;;;;5023401;28;20115;-73
2023/06/15 14:11:06;;;;;;;3.50;3.20;;;;;;;;;;5016309;28;20569;-72
2023/06/15 14:13:32;;;;;;;4.10;3.00;;;;;;;;;;5015316;28;20033;-73
2023/06/15 14:15:57;;;;;;;4.03;3.55;;;;;;;;;;5022268;28;20045;-73
2023/06/15 14:18:23;;;;;;;5.75;3.38;;;;;;;;;;5023162;28;20038;-73
2023/06/15 14:20:49;;;;;;;6.00;3.40;;;;;;;;;;5023015;28;20045;-73
2023/06/15 14:23:15;;;;;;;4.28;3.80;;;;;;;;;;5018670;28;20112;-73
2023/06/15 14:25:40;;;;;;;3.92;3.53;;;;;;;;;;5013791;28;20034;-72
2023/06/15 14:28:06;;;;;;;4.25;3.58;;;;;;;;;;5014421;28;20065;-73
2023/06/15 14:30:31;;;;;;;4.80;3.40;;;;;;;;;;5012876;28;20045;-73
2023/06/15 14:32:57;;;;;;;4.47;3.50;;;;;;;;;;5014656;28;20522;-72
2023/06/15 14:35:22;;;;;;;4.07;3.35;;;;;;;;;;5013755;28;20427;-73
2023/06/15 14:37:50;;;;;;;3.85;3.50;;;;;;;;;;5014065;28;20032;-72
2023/06/15 14:40:16;;;;;;;10.82;3.80;;;;;;;;;;5017951;28;20828;-72
2023/06/15 14:42:47;;;;;;;3.50;3.20;;;;;;;;;;5012613;28;20042;-73